Terminal Aerodrome Forecast
Issued by NWS

Home | Current Version | Previous Version | Text Only | Print | Product List | Glossary On
Versions: 1 2 3 4 5 6 7 8 9 10 11 12 13 14 15 16 17 18 19 20 21 22
000
FTUS41 KBGM 021127
TAFELM
TAF
KELM 021127Z 0212/0312 VRB03KT 3SM BR SCT005
      TEMPO 0212/0214 1/2SM FG OVC002
     FM021500 31005KT P6SM SCT030
     FM030400 26001KT 5SM HZ SCT030
     FM030700 27002KT 1/2SM FG SCT030 SCT250=

USA.gov is the U.S. government's official web portal to all federal, state and local government web resources and services.